sensor_id;sensor_type;location;lat;lon;timestamp;pressure;altitude;pressure_sealevel;temperature;humidity
21545;BME280;10933;50.754;11.508;2024-03-23T00:53:50;98741.66;;;4.65;100.00
21545;BME280;10933;50.754;11.508;2024-03-23T00:56:16;98736.19;;;4.95;100.00
21545;BME280;10933;50.754;11.508;2024-03-23T00:58:42;98726.19;;;4.91;100.00
21545;BME280;10933;50.754;11.508;2024-03-23T01:01:08;98725.16;;;4.92;100.00
21545;BME280;10933;50.754;11.508;2024-03-23T01:03:34;98720.63;;;4.92;100.00
21545;BME280;10933;50.754;11.508;2024-03-23T01:06:01;98709.56;;;5.00;100.00
21545;BME280;10933;50.754;11.508;2024-03-23T01:08:28;98697.94;;;4.95;100.00
21545;BME280;10933;50.754;11.508;2024-03-23T01:10:55;98700.53;;;4.90;100.00
21545;BME280;10933;50.754;11.508;2024-03-23T01:13:21;98712.13;;;4.95;100.00
21545;BME280;10933;50.754;11.508;2024-03-23T01:15:51;98705.59;;;5.03;100.00
21545;BME280;10933;50.754;11.508;2024-03-23T01:18:18;98696.31;;;4.94;100.00
21545;BME280;10933;50.754;11.508;2024-03-23T01:20:45;98690.06;;;5.00;100.00
21545;BME280;10933;50.754;11.508;2024-03-23T01:23:11;98686.19;;;5.08;100.00
21545;BME280;10933;50.754;11.508;2024-03-23T01:25:37;98669.84;;;4.92;100.00
21545;BME280;10933;50.754;11.508;2024-03-23T01:28:04;98670.25;;;5.13;100.00
21545;BME280;10933;50.754;11.508;2024-03-23T01:30:32;98657.91;;;4.83;100.00
21545;BME280;10933;50.754;11.508;2024-03-23T01:32:58;98658.28;;;4.63;100.00
21545;BME280;10933;50.754;11.508;2024-03-23T01:35:24;98649.00;;;4.31;100.00
21545;BME280;10933;50.754;11.508;2024-03-23T01:37:51;98660.84;;;4.35;100.00
21545;BME280;10933;50.754;11.508;2024-03-23T01:40:17;98662.72;;;4.46;100.00
21545;BME280;10933;50.754;11.508;2024-03-23T01:42:54;98671.63;;;4.52;100.00
21545;BME280;10933;50.754;11.508;2024-03-23T01:45:21;98674.31;;;4.40;100.00
21545;BME280;10933;50.754;11.508;2024-03-23T01:47:47;98669.31;;;4.43;100.00
21545;BME280;10933;50.754;11.508;2024-03-23T01:50:13;98664.91;;;4.49;100.00
21545;BME280;10933;50.754;11.508;2024-03-23T01:52:40;98678.03;;;4.51;100.00
21545;BME280;10933;50.754;11.508;2024-03-23T01:55:06;98671.97;;;4.43;100.00
21545;BME280;10933;50.754;11.508;2024-03-23T01:57:32;98665.25;;;4.41;100.00
21545;BME280;10933;50.754;11.508;2024-03-23T01:59:59;98659.44;;;4.44;100.00
21545;BME280;10933;50.754;11.508;2024-03-23T02:02:25;98653.53;;;4.30;100.00
21545;BME280;10933;50.754;11.508;2024-03-23T02:04:51;98647.94;;;4.32;100.00
21545;BME280;10933;50.754;11.508;2024-03-23T02:07:17;98631.16;;;4.20;100.00
21545;BME280;10933;50.754;11.508;2024-03-23T02:09:44;98631.25;;;4.13;100.00
21545;BME280;10933;50.754;11.508;2024-03-23T02:12:10;98620.19;;;3.86;100.00
21545;BME280;10933;50.754;11.508;2024-03-23T02:14:36;98622.97;;;3.79;100.00
21545;BME280;10933;50.754;11.508;2024-03-23T02:17:02;98624.59;;;3.92;100.00
21545;BME280;10933;50.754;11.508;2024-03-23T02:19:29;98623.78;;;3.92;100.00
21545;BME280;10933;50.754;11.508;2024-03-23T02:21:55;98629.94;;;3.92;100.00
21545;BME280;10933;50.754;11.508;2024-03-23T02:24:21;98630.88;;;3.86;100.00
21545;BME280;10933;50.754;11.508;2024-03-23T02:26:47;98627.16;;;3.87;100.00
21545;BME280;10933;50.754;11.508;2024-03-23T02:29:14;98625.66;;;3.91;100.00
21545;BME280;10933;50.754;11.508;2024-03-23T02:31:40;98612.69;;;3.41;100.00
21545;BME280;10933;50.754;11.508;2024-03-23T02:34:06;98611.44;;;3.44;100.00
21545;BME280;10933;50.754;11.508;2024-03-23T02:36:32;98607.81;;;3.38;100.00
21545;BME280;10933;50.754;11.508;2024-03-23T02:38:58;98613.97;;;3.50;100.00
21545;BME280;10933;50.754;11.508;2024-03-23T02:41:25;98603.66;;;3.54;100.00
21545;BME280;10933;50.754;11.508;2024-03-23T02:43:51;98594.78;;;3.30;100.00
21545;BME280;10933;50.754;11.508;2024-03-23T02:46:17;98590.22;;;3.49;100.00
21545;BME280;10933;50.754;11.508;2024-03-23T02:48:43;98592.66;;;3.50;100.00
21545;BME280;10933;50.754;11.508;2024-03-23T02:51:09;98584.97;;;3.42;100.00
21545;BME280;10933;50.754;11.508;2024-03-23T02:53:35;98580.53;;;3.78;100.00
21545;BME280;10933;50.754;11.508;2024-03-23T02:56:02;98576.69;;;3.74;100.00
21545;BME280;10933;50.754;11.508;2024-03-23T02:58:28;98574.03;;;3.74;100.00
21545;BME280;10933;50.754;11.508;2024-03-23T03:00:54;98569.84;;;3.78;100.00
21545;BME280;10933;50.754;11.508;2024-03-23T03:03:20;98555.03;;;3.70;100.00
21545;BME280;10933;50.754;11.508;2024-03-23T03:05:46;98551.00;;;3.38;100.00
21545;BME280;10933;50.754;11.508;2024-03-23T03:08:12;98541.16;;;3.38;100.00
21545;BME280;10933;50.754;11.508;2024-03-23T03:10:38;98554.03;;;3.41;100.00
21545;BME280;10933;50.754;11.508;2024-03-23T03:13:04;98559.97;;;3.67;100.00
21545;BME280;10933;50.754;11.508;2024-03-23T03:15:31;98559.66;;;3.75;100.00
21545;BME280;10933;50.754;11.508;2024-03-23T03:17:57;98558.72;;;3.81;100.00
21545;BME280;10933;50.754;11.508;2024-03-23T03:20:23;98546.53;;;3.73;100.00
21545;BME280;10933;50.754;11.508;2024-03-23T03:22:50;98534.13;;;3.67;100.00
21545;BME280;10933;50.754;11.508;2024-03-23T03:25:16;98531.34;;;3.74;100.00
21545;BME280;10933;50.754;11.508;2024-03-23T03:27:42;98525.69;;;3.70;100.00
21545;BME280;10933;50.754;11.508;2024-03-23T03:30:08;98521.84;;;3.78;100.00
21545;BME280;10933;50.754;11.508;2024-03-23T03:32:34;98521.97;;;3.95;100.00
21545;BME280;10933;50.754;11.508;2024-03-23T03:35:00;98516.81;;;4.17;100.00
21545;BME280;10933;50.754;11.508;2024-03-23T03:37:26;98522.91;;;4.52;100.00
21545;BME280;10933;50.754;11.508;2024-03-23T03:39:52;98520.59;;;4.44;100.00
21545;BME280;10933;50.754;11.508;2024-03-23T03:42:19;98503.25;;;4.06;100.00
21545;BME280;10933;50.754;11.508;2024-03-23T03:44:45;98502.13;;;3.79;100.00
21545;BME280;10933;50.754;11.508;2024-03-23T03:47:11;98504.53;;;3.80;100.00
21545;BME280;10933;50.754;11.508;2024-03-23T03:49:37;98509.06;;;4.03;100.00
21545;BME280;10933;50.754;11.508;2024-03-23T03:52:03;98490.53;;;3.85;100.00
21545;BME280;10933;50.754;11.508;2024-03-23T03:54:29;98493.38;;;4.19;100.00
21545;BME280;10933;50.754;11.508;2024-03-23T03:56:55;98486.31;;;4.12;100.00
21545;BME280;10933;50.754;11.508;2024-03-23T03:59:21;98488.28;;;4.05;100.00
21545;BME280;10933;50.754;11.508;2024-03-23T04:01:47;98498.34;;;4.27;100.00
21545;BME280;10933;50.754;11.508;2024-03-23T04:04:13;98496.63;;;4.21;100.00
21545;BME280;10933;50.754;11.508;2024-03-23T04:06:40;98501.84;;;4.56;100.00
21545;BME280;10933;50.754;11.508;2024-03-23T04:09:06;98501.09;;;4.43;100.00
21545;BME280;10933;50.754;11.508;2024-03-23T04:11:32;98483.84;;;4.34;100.00
21545;BME280;10933;50.754;11.508;2024-03-23T04:13:58;98478.53;;;4.51;100.00
21545;BME280;10933;50.754;11.508;2024-03-23T04:16:29;98471.09;;;4.53;100.00
21545;BME280;10933;50.754;11.508;2024-03-23T04:18:55;98454.13;;;4.59;100.00
21545;BME280;10933;50.754;11.508;2024-03-23T04:21:22;98446.13;;;4.59;100.00
21545;BME280;10933;50.754;11.508;2024-03-23T04:23:48;98448.16;;;4.69;100.00
21545;BME280;10933;50.754;11.508;2024-03-23T04:26:15;98430.25;;;4.69;100.00
21545;BME280;10933;50.754;11.508;2024-03-23T04:28:41;98424.31;;;5.13;100.00
21545;BME280;10933;50.754;11.508;2024-03-23T04:31:09;98408.97;;;5.42;100.00
21545;BME280;10933;50.754;11.508;2024-03-23T04:33:36;98389.09;;;5.16;100.00
21545;BME280;10933;50.754;11.508;2024-03-23T04:36:02;98394.13;;;5.12;100.00
21545;BME280;10933;50.754;11.508;2024-03-23T04:38:28;98391.34;;;4.90;100.00
21545;BME280;10933;50.754;11.508;2024-03-23T04:40:58;98398.63;;;4.95;100.00
21545;BME280;10933;50.754;11.508;2024-03-23T04:43:26;98402.53;;;5.04;100.00
21545;BME280;10933;50.754;11.508;2024-03-23T04:45:52;98395.50;;;4.98;100.00
21545;BME280;10933;50.754;11.508;2024-03-23T04:48:21;98378.91;;;4.96;100.00
21545;BME280;10933;50.754;11.508;2024-03-23T04:50:55;98369.88;;;4.68;100.00
21545;BME280;10933;50.754;11.508;2024-03-23T04:53:23;98371.91;;;4.61;100.00
21545;BME280;10933;50.754;11.508;2024-03-23T04:55:54;98379.34;;;4.59;100.00
21545;BME280;10933;50.754;11.508;2024-03-23T04:58:21;98373.53;;;4.62;100.00
21545;BME280;10933;50.754;11.508;2024-03-23T05:00:47;98373.34;;;4.52;100.00
21545;BME280;10933;50.754;11.508;2024-03-23T05:03:13;98395.63;;;4.58;100.00
21545;BME280;10933;50.754;11.508;2024-03-23T05:05:39;98400.28;;;5.13;100.00
21545;BME280;10933;50.754;11.508;2024-03-23T05:08:06;98384.75;;;5.31;100.00
21545;BME280;10933;50.754;11.508;2024-03-23T05:10:32;98379.75;;;5.35;100.00
21545;BME280;10933;50.754;11.508;2024-03-23T05:12:58;98362.81;;;5.29;100.00
21545;BME280;10933;50.754;11.508;2024-03-23T05:15:24;98361.94;;;5.07;100.00
21545;BME280;10933;50.754;11.508;2024-03-23T05:17:51;98384.16;;;5.24;100.00
21545;BME280;10933;50.754;11.508;2024-03-23T05:20:17;98367.03;;;5.25;100.00
21545;BME280;10933;50.754;11.508;2024-03-23T05:22:44;98360.84;;;5.42;100.00
21545;BME280;10933;50.754;11.508;2024-03-23T05:25:10;98368.09;;;5.63;100.00
21545;BME280;10933;50.754;11.508;2024-03-23T05:27:37;98350.44;;;5.07;100.00
21545;BME280;10933;50.754;11.508;2024-03-23T05:30:04;98362.75;;;5.24;100.00
21545;BME280;10933;50.754;11.508;2024-03-23T05:32:31;98367.53;;;5.22;100.00
21545;BME280;10933;50.754;11.508;2024-03-23T05:34:57;98342.81;;;5.15;100.00
21545;BME280;10933;50.754;11.508;2024-03-23T05:37:24;98350.66;;;5.39;100.00
21545;BME280;10933;50.754;11.508;2024-03-23T05:39:50;98346.78;;;5.29;100.00
21545;BME280;10933;50.754;11.508;2024-03-23T05:42:17;98333.75;;;5.55;100.00
21545;BME280;10933;50.754;11.508;2024-03-23T05:44:46;98309.84;;;5.70;100.00
21545;BME280;10933;50.754;11.508;2024-03-23T05:47:13;98305.69;;;5.57;100.00
21545;BME280;10933;50.754;11.508;2024-03-23T05:49:40;98306.56;;;5.41;100.00
21545;BME280;10933;50.754;11.508;2024-03-23T05:52:08;98315.41;;;5.64;100.00
21545;BME280;10933;50.754;11.508;2024-03-23T05:54:35;98300.59;;;5.56;100.00
21545;BME280;10933;50.754;11.508;2024-03-23T05:57:01;98301.38;;;5.56;100.00
21545;BME280;10933;50.754;11.508;2024-03-23T05:59:28;98291.94;;;5.49;100.00
21545;BME280;10933;50.754;11.508;2024-03-23T06:01:54;98307.59;;;6.06;100.00
21545;BME280;10933;50.754;11.508;2024-03-23T06:04:20;98286.91;;;5.74;100.00
21545;BME280;10933;50.754;11.508;2024-03-23T06:06:47;98295.59;;;5.86;100.00
21545;BME280;10933;50.754;11.508;2024-03-23T06:09:13;98275.91;;;5.49;100.00
21545;BME280;10933;50.754;11.508;2024-03-23T06:11:39;98292.38;;;5.84;100.00
21545;BME280;10933;50.754;11.508;2024-03-23T06:14:05;98276.47;;;5.73;100.00
21545;BME280;10933;50.754;11.508;2024-03-23T06:16:32;98270.09;;;5.57;100.00
21545;BME280;10933;50.754;11.508;2024-03-23T06:18:58;98263.38;;;5.76;100.00
21545;BME280;10933;50.754;11.508;2024-03-23T06:21:24;98257.88;;;5.61;100.00
21545;BME280;10933;50.754;11.508;2024-03-23T06:23:54;98240.09;;;5.77;100.00
21545;BME280;10933;50.754;11.508;2024-03-23T06:26:20;98241.41;;;5.74;100.00
21545;BME280;10933;50.754;11.508;2024-03-23T06:28:49;98232.25;;;5.70;100.00
21545;BME280;10933;50.754;11.508;2024-03-23T06:31:15;98235.56;;;5.77;100.00
21545;BME280;10933;50.754;11.508;2024-03-23T06:33:42;98229.19;;;5.83;100.00
21545;BME280;10933;50.754;11.508;2024-03-23T06:36:10;98225.78;;;6.15;100.00
21545;BME280;10933;50.754;11.508;2024-03-23T06:38:37;98225.25;;;6.18;100.00
21545;BME280;10933;50.754;11.508;2024-03-23T06:41:07;98219.53;;;6.36;100.00
21545;BME280;10933;50.754;11.508;2024-03-23T06:43:33;98198.06;;;6.31;100.00
21545;BME280;10933;50.754;11.508;2024-03-23T06:46:01;98199.00;;;6.15;100.00
21545;BME280;10933;50.754;11.508;2024-03-23T06:48:28;98196.34;;;6.15;100.00
21545;BME280;10933;50.754;11.508;2024-03-23T06:50:57;98201.16;;;6.92;100.00
21545;BME280;10933;50.754;11.508;2024-03-23T06:53:23;98188.91;;;7.12;100.00
21545;BME280;10933;50.754;11.508;2024-03-23T06:55:53;98175.94;;;6.88;100.00
21545;BME280;10933;50.754;11.508;2024-03-23T06:58:23;98183.59;;;6.69;100.00
21545;BME280;10933;50.754;11.508;2024-03-23T07:00:50;98182.56;;;6.75;100.00
21545;BME280;10933;50.754;11.508;2024-03-23T07:03:17;98186.50;;;6.63;100.00
21545;BME280;10933;50.754;11.508;2024-03-23T07:05:43;98196.56;;;6.45;100.00
21545;BME280;10933;50.754;11.508;2024-03-23T07:08:09;98211.06;;;6.49;100.00
21545;BME280;10933;50.754;11.508;2024-03-23T07:10:38;98218.91;;;6.61;100.00
21545;BME280;10933;50.754;11.508;2024-03-23T07:13:04;98247.09;;;6.69;100.00
21545;BME280;10933;50.754;11.508;2024-03-23T07:15:30;98236.81;;;6.56;100.00
21545;BME280;10933;50.754;11.508;2024-03-23T07:17:56;98240.94;;;6.68;100.00
21545;BME280;10933;50.754;11.508;2024-03-23T07:20:23;98209.00;;;6.62;100.00
21545;BME280;10933;50.754;11.508;2024-03-23T07:22:49;98219.28;;;6.80;100.00
21545;BME280;10933;50.754;11.508;2024-03-23T07:25:15;98221.16;;;6.79;100.00
21545;BME280;10933;50.754;11.508;2024-03-23T07:27:41;98216.88;;;6.78;100.00
21545;BME280;10933;50.754;11.508;2024-03-23T07:30:07;98239.22;;;6.94;100.00
21545;BME280;10933;50.754;11.508;2024-03-23T07:32:35;98247.53;;;6.56;100.00
21545;BME280;10933;50.754;11.508;2024-03-23T07:35:01;98259.88;;;6.57;100.00
21545;BME280;10933;50.754;11.508;2024-03-23T07:37:28;98274.78;;;6.47;100.00
21545;BME280;10933;50.754;11.508;2024-03-23T07:39:54;98294.06;;;6.44;100.00
21545;BME280;10933;50.754;11.508;2024-03-23T07:42:20;98320.47;;;6.63;100.00
21545;BME280;10933;50.754;11.508;2024-03-23T07:44:46;98328.28;;;6.69;100.00
21545;BME280;10933;50.754;11.508;2024-03-23T07:47:12;98364.47;;;6.72;100.00
21545;BME280;10933;50.754;11.508;2024-03-23T07:49:38;98382.47;;;7.03;100.00
21545;BME280;10933;50.754;11.508;2024-03-23T07:52:05;98409.03;;;7.42;100.00
21545;BME280;10933;50.754;11.508;2024-03-23T07:54:32;98426.56;;;7.23;100.00
21545;BME280;10933;50.754;11.508;2024-03-23T07:56:58;98419.66;;;6.68;100.00
21545;BME280;10933;50.754;11.508;2024-03-23T07:59:24;98425.38;;;6.49;100.00
21545;BME280;10933;50.754;11.508;2024-03-23T08:01:51;98433.13;;;6.24;100.00
21545;BME280;10933;50.754;11.508;2024-03-23T08:04:17;98425.94;;;6.30;100.00
21545;BME280;10933;50.754;11.508;2024-03-23T08:06:43;98430.31;;;6.14;100.00
21545;BME280;10933;50.754;11.508;2024-03-23T08:09:09;98423.28;;;6.08;100.00
21545;BME280;10933;50.754;11.508;2024-03-23T08:11:35;98425.47;;;6.11;100.00
21545;BME280;10933;50.754;11.508;2024-03-23T08:14:01;98431.19;;;6.19;100.00
21545;BME280;10933;50.754;11.508;2024-03-23T08:16:28;98416.94;;;6.14;100.00
21545;BME280;10933;50.754;11.508;2024-03-23T08:18:54;98411.25;;;6.32;100.00
21545;BME280;10933;50.754;11.508;2024-03-23T08:21:23;98423.41;;;6.40;100.00
21545;BME280;10933;50.754;11.508;2024-03-23T08:23:52;98403.69;;;6.51;100.00
21545;BME280;10933;50.754;11.508;2024-03-23T08:26:18;98406.25;;;6.41;100.00
21545;BME280;10933;50.754;11.508;2024-03-23T08:28:44;98422.34;;;6.68;100.00
21545;BME280;10933;50.754;11.508;2024-03-23T08:31:11;98428.31;;;6.48;100.00
21545;BME280;10933;50.754;11.508;2024-03-23T08:33:38;98440.66;;;6.49;100.00
21545;BME280;10933;50.754;11.508;2024-03-23T08:36:07;98448.44;;;6.51;100.00
21545;BME280;10933;50.754;11.508;2024-03-23T08:38:34;98459.16;;;6.77;100.00
21545;BME280;10933;50.754;11.508;2024-03-23T08:41:05;98476.25;;;6.71;100.00
21545;BME280;10933;50.754;11.508;2024-03-23T08:43:34;98486.31;;;6.37;100.00
21545;BME280;10933;50.754;11.508;2024-03-23T08:46:11;98503.19;;;6.38;100.00
21545;BME280;10933;50.754;11.508;2024-03-23T08:48:40;98516.94;;;6.46;100.00
21545;BME280;10933;50.754;11.508;2024-03-23T08:51:10;98527.34;;;6.21;100.00
21545;BME280;10933;50.754;11.508;2024-03-23T08:53:37;98551.72;;;5.86;100.00
21545;BME280;10933;50.754;11.508;2024-03-23T08:56:04;98556.16;;;5.80;100.00
21545;BME280;10933;50.754;11.508;2024-03-23T08:58:31;98567.94;;;5.79;100.00
21545;BME280;10933;50.754;11.508;2024-03-23T09:01:03;98580.34;;;5.85;100.00
21545;BME280;10933;50.754;11.508;2024-03-23T09:03:30;98572.31;;;5.52;100.00
21545;BME280;10933;50.754;11.508;2024-03-23T09:05:56;98590.53;;;5.55;100.00
21545;BME280;10933;50.754;11.508;2024-03-23T09:08:24;98607.59;;;5.66;100.00
21545;BME280;10933;50.754;11.508;2024-03-23T09:10:51;98611.88;;;5.67;100.00
21545;BME280;10933;50.754;11.508;2024-03-23T09:13:17;98621.66;;;5.44;100.00
21545;BME280;10933;50.754;11.508;2024-03-23T09:15:48;98643.00;;;5.27;100.00
21545;BME280;10933;50.754;11.508;2024-03-23T09:18:15;98651.06;;;5.44;100.00
21545;BME280;10933;50.754;11.508;2024-03-23T09:20:41;98662.28;;;5.29;100.00
21545;BME280;10933;50.754;11.508;2024-03-23T09:23:08;98673.22;;;5.56;100.00
21545;BME280;10933;50.754;11.508;2024-03-23T09:25:40;98664.78;;;5.48;100.00
21545;BME280;10933;50.754;11.508;2024-03-23T09:28:07;98662.78;;;5.26;100.00
21545;BME280;10933;50.754;11.508;2024-03-23T09:30:35;98681.59;;;5.31;100.00
21545;BME280;10933;50.754;11.508;2024-03-23T09:33:02;98692.47;;;5.42;100.00
21545;BME280;10933;50.754;11.508;2024-03-23T09:35:28;98684.78;;;5.45;100.00
21545;BME280;10933;50.754;11.508;2024-03-23T09:37:54;98702.47;;;5.46;100.00
21545;BME280;10933;50.754;11.508;2024-03-23T09:40:21;98702.34;;;5.70;100.00
21545;BME280;10933;50.754;11.508;2024-03-23T09:42:51;98710.06;;;5.66;100.00
21545;BME280;10933;50.754;11.508;2024-03-23T09:45:20;98712.69;;;5.49;100.00
21545;BME280;10933;50.754;11.508;2024-03-23T09:47:48;98704.63;;;5.61;100.00
21545;BME280;10933;50.754;11.508;2024-03-23T09:50:14;98716.97;;;5.62;100.00
21545;BME280;10933;50.754;11.508;2024-03-23T09:52:41;98722.69;;;5.54;100.00
21545;BME280;10933;50.754;11.508;2024-03-23T09:55:10;98726.81;;;5.73;100.00
21545;BME280;10933;50.754;11.508;2024-03-23T09:57:36;98736.94;;;6.00;100.00
21545;BME280;10933;50.754;11.508;2024-03-23T10:00:03;98742.47;;;6.10;100.00
21545;BME280;10933;50.754;11.508;2024-03-23T10:02:30;98749.47;;;6.28;100.00
21545;BME280;10933;50.754;11.508;2024-03-23T10:04:56;98761.00;;;6.28;100.00
21545;BME280;10933;50.754;11.508;2024-03-23T10:07:23;98754.31;;;6.14;100.00
21545;BME280;10933;50.754;11.508;2024-03-23T10:09:49;98774.81;;;6.37;100.00
21545;BME280;10933;50.754;11.508;2024-03-23T10:12:19;98774.38;;;6.78;100.00
21545;BME280;10933;50.754;11.508;2024-03-23T10:14:45;98789.13;;;6.98;100.00
21545;BME280;10933;50.754;11.508;2024-03-23T10:19:48;98805.19;;;6.76;100.00
21545;BME280;10933;50.754;11.508;2024-03-23T10:22:21;98821.16;;;7.04;100.00
21545;BME280;10933;50.754;11.508;2024-03-23T10:24:49;98829.97;;;7.22;100.00
21545;BME280;10933;50.754;11.508;2024-03-23T10:27:21;98828.03;;;7.17;100.00
21545;BME280;10933;50.754;11.508;2024-03-23T10:29:49;98817.84;;;7.58;100.00
21545;BME280;10933;50.754;11.508;2024-03-23T10:32:16;98834.75;;;8.51;100.00
21545;BME280;10933;50.754;11.508;2024-03-23T10:34:43;98845.44;;;9.47;100.00
21545;BME280;10933;50.754;11.508;2024-03-23T10:37:09;98850.59;;;9.54;100.00
21545;BME280;10933;50.754;11.508;2024-03-23T10:39:40;98857.69;;;9.75;100.00
21545;BME280;10933;50.754;11.508;2024-03-23T10:42:08;98867.91;;;10.30;100.00
21545;BME280;10933;50.754;11.508;2024-03-23T10:44:36;98872.47;;;10.25;100.00
21545;BME280;10933;50.754;11.508;2024-03-23T10:47:03;98883.22;;;9.20;100.00
21545;BME280;10933;50.754;11.508;2024-03-23T10:49:33;98899.19;;;8.68;100.00
21545;BME280;10933;50.754;11.508;2024-03-23T10:52:08;98916.38;;;8.40;100.00
21545;BME280;10933;50.754;11.508;2024-03-23T10:54:35;98915.16;;;8.31;100.00
21545;BME280;10933;50.754;11.508;2024-03-23T10:59:34;98899.06;;;9.54;100.00
21545;BME280;10933;50.754;11.508;2024-03-23T11:02:02;98919.56;;;9.65;100.00
21545;BME280;10933;50.754;11.508;2024-03-23T11:04:35;98931.81;;;9.40;100.00
21545;BME280;10933;50.754;11.508;2024-03-23T11:07:02;98927.25;;;9.09;100.00
21545;BME280;10933;50.754;11.508;2024-03-23T11:09:43;98933.63;;;9.72;100.00
21545;BME280;10933;50.754;11.508;2024-03-23T11:14:51;98942.19;;;9.64;100.00
21545;BME280;10933;50.754;11.508;2024-03-23T11:17:21;98954.72;;;9.11;100.00
21545;BME280;10933;50.754;11.508;2024-03-23T11:20:00;98917.06;;;8.84;100.00
21545;BME280;10933;50.754;11.508;2024-03-23T11:22:40;98941.78;;;9.87;100.00
21545;BME280;10933;50.754;11.508;2024-03-23T11:25:20;98962.22;;;10.25;100.00
21545;BME280;10933;50.754;11.508;2024-03-23T11:27:50;98956.72;;;10.78;100.00
21545;BME280;10933;50.754;11.508;2024-03-23T11:30:24;98970.00;;;11.00;100.00
21545;BME280;10933;50.754;11.508;2024-03-23T11:32:54;98980.28;;;11.08;100.00
21545;BME280;10933;50.754;11.508;2024-03-23T11:38:21;98986.53;;;9.51;100.00
21545;BME280;10933;50.754;11.508;2024-03-23T11:40:48;98982.44;;;9.43;100.00
21545;BME280;10933;50.754;11.508;2024-03-23T11:43:17;98965.09;;;9.29;100.00
21545;BME280;10933;50.754;11.508;2024-03-23T11:45:48;98979.41;;;9.03;100.00
21545;BME280;10933;50.754;11.508;2024-03-23T11:48:17;98974.56;;;9.37;100.00
21545;BME280;10933;50.754;11.508;2024-03-23T11:50:45;98968.81;;;9.23;100.00
21545;BME280;10933;50.754;11.508;2024-03-23T11:53:21;98974.72;;;9.20;100.00
21545;BME280;10933;50.754;11.508;2024-03-23T11:55:56;98983.66;;;8.99;100.00
21545;BME280;10933;50.754;11.508;2024-03-23T11:58:24;98986.75;;;9.44;100.00
21545;BME280;10933;50.754;11.508;2024-03-23T12:00:57;98997.09;;;9.58;100.00
21545;BME280;10933;50.754;11.508;2024-03-23T12:03:24;98999.41;;;9.81;100.00
21545;BME280;10933;50.754;11.508;2024-03-23T12:05:55;98985.13;;;9.43;100.00
21545;BME280;10933;50.754;11.508;2024-03-23T12:08:24;98986.44;;;9.78;100.00
21545;BME280;10933;50.754;11.508;2024-03-23T12:10:52;98970.91;;;9.16;100.00
21545;BME280;10933;50.754;11.508;2024-03-23T12:13:20;98985.13;;;9.43;100.00
21545;BME280;10933;50.754;11.508;2024-03-23T12:15:52;98981.72;;;8.94;100.00
21545;BME280;10933;50.754;11.508;2024-03-23T12:18:23;98979.84;;;8.68;100.00
21545;BME280;10933;50.754;11.508;2024-03-23T12:20:50;98982.59;;;8.29;100.00
21545;BME280;10933;50.754;11.508;2024-03-23T12:23:16;98973.22;;;8.32;100.00
21545;BME280;10933;50.754;11.508;2024-03-23T12:25:42;98983.09;;;8.48;100.00
21545;BME280;10933;50.754;11.508;2024-03-23T12:28:08;98975.13;;;8.53;100.00
21545;BME280;10933;50.754;11.508;2024-03-23T12:30:39;98986.63;;;8.10;100.00
21545;BME280;10933;50.754;11.508;2024-03-23T12:33:06;98992.00;;;8.32;100.00
21545;BME280;10933;50.754;11.508;2024-03-23T12:35:32;98985.03;;;8.31;100.00
21545;BME280;10933;50.754;11.508;2024-03-23T12:37:58;98990.66;;;8.51;100.00
21545;BME280;10933;50.754;11.508;2024-03-23T12:40:24;98979.75;;;8.19;100.00
21545;BME280;10933;50.754;11.508;2024-03-23T12:42:51;98998.00;;;8.17;100.00
21545;BME280;10933;50.754;11.508;2024-03-23T12:45:17;98944.34;;;7.45;100.00
21545;BME280;10933;50.754;11.508;2024-03-23T12:47:43;98939.56;;;7.30;100.00
21545;BME280;10933;50.754;11.508;2024-03-23T12:50:09;98913.22;;;7.44;100.00
21545;BME280;10933;50.754;11.508;2024-03-23T12:52:36;98907.53;;;8.71;100.00
21545;BME280;10933;50.754;11.508;2024-03-23T12:55:02;98923.44;;;9.37;100.00
21545;BME280;10933;50.754;11.508;2024-03-23T12:57:29;98922.22;;;9.55;100.00
21545;BME280;10933;50.754;11.508;2024-03-23T12:59:55;98928.31;;;9.82;100.00
21545;BME280;10933;50.754;11.508;2024-03-23T13:02:22;98925.31;;;9.36;100.00
21545;BME280;10933;50.754;11.508;2024-03-23T13:04:53;98934.91;;;9.59;100.00
21545;BME280;10933;50.754;11.508;2024-03-23T13:07:20;98944.88;;;9.64;100.00
21545;BME280;10933;50.754;11.508;2024-03-23T13:09:47;98955.84;;;9.94;100.00
21545;BME280;10933;50.754;11.508;2024-03-23T13:12:13;98951.69;;;9.77;100.00
21545;BME280;10933;50.754;11.508;2024-03-23T13:14:39;98971.50;;;9.97;100.00
21545;BME280;10933;50.754;11.508;2024-03-23T13:17:06;98977.81;;;10.18;100.00
21545;BME280;10933;50.754;11.508;2024-03-23T13:19:33;98989.97;;;11.04;100.00
21545;BME280;10933;50.754;11.508;2024-03-23T13:22:00;98997.84;;;11.20;100.00
21545;BME280;10933;50.754;11.508;2024-03-23T13:24:27;98996.22;;;11.30;100.00
21545;BME280;10933;50.754;11.508;2024-03-23T13:26:54;99003.25;;;11.31;100.00
21545;BME280;10933;50.754;11.508;2024-03-23T13:29:21;98989.38;;;10.71;100.00
21545;BME280;10933;50.754;11.508;2024-03-23T13:31:49;99010.88;;;10.51;100.00
21545;BME280;10933;50.754;11.508;2024-03-23T13:34:16;99001.06;;;11.12;100.00
21545;BME280;10933;50.754;11.508;2024-03-23T13:36:46;99014.03;;;11.41;100.00
21545;BME280;10933;50.754;11.508;2024-03-23T13:39:14;98992.94;;;11.17;100.00
21545;BME280;10933;50.754;11.508;2024-03-23T13:41:44;98993.78;;;11.38;100.00
21545;BME280;10933;50.754;11.508;2024-03-23T13:44:14;98981.59;;;10.95;100.00
21545;BME280;10933;50.754;11.508;2024-03-23T13:46:41;98990.00;;;11.14;100.00
21545;BME280;10933;50.754;11.508;2024-03-23T13:49:25;98985.78;;;10.45;100.00
21545;BME280;10933;50.754;11.508;2024-03-23T13:51:53;98995.34;;;10.88;100.00
21545;BME280;10933;50.754;11.508;2024-03-23T13:54:20;98980.19;;;10.67;100.00